createdAt,value
2019-02-16T00:00:11.839Z,59.6
2019-02-16T00:01:01.564Z,59.5
2019-02-16T00:01:51.376Z,59.5
2019-02-16T00:02:41.476Z,59.6
2019-02-16T00:03:31.752Z,59.5
2019-02-16T00:04:21.256Z,59.5
2019-02-16T00:05:11.874Z,59.5
2019-02-16T00:06:01.717Z,59.5
2019-02-16T00:06:51.696Z,59.5
2019-02-16T00:07:42.319Z,59.5
2019-02-16T00:08:31.819Z,59.4
2019-02-16T00:09:22.136Z,59.4
2019-02-16T00:10:11.937Z,59.4
2019-02-16T00:11:01.234Z,59.4
2019-02-16T00:11:52.600Z,59.4
2019-02-16T00:12:42.661Z,59.4
2019-02-16T00:13:31.417Z,59.4
2019-02-16T00:14:22.306Z,59.4
2019-02-16T00:15:12.358Z,59.4
2019-02-16T00:16:01.861Z,59.4
2019-02-16T00:16:52.196Z,59.4
2019-02-16T00:17:42.578Z,59.4
2019-02-16T00:18:32.026Z,59.4
2019-02-16T00:19:22.633Z,59.4
2019-02-16T00:20:12.685Z,59.3
2019-02-16T00:21:07.298Z,59.4
2019-02-16T00:21:52.586Z,59.3
2019-02-16T00:22:43.066Z,59.3
2019-02-16T00:23:32.833Z,59.3
2019-02-16T00:24:23.173Z,59.3
2019-02-16T00:25:13.523Z,59.3
2019-02-16T00:26:02.749Z,59.3
2019-02-16T00:26:52.855Z,59.3
2019-02-16T00:27:43.427Z,59.3
2019-02-16T00:28:33.261Z,59.3
2019-02-16T00:29:23.800Z,59.3
2019-02-16T00:30:13.298Z,59.3
2019-02-16T00:31:03.935Z,59.3
2019-02-16T00:31:53.727Z,59.3
2019-02-16T00:32:43.483Z,59.3
2019-02-16T00:33:33.263Z,59.2
2019-02-16T00:34:23.940Z,59.3
2019-02-16T00:35:13.965Z,59.2
2019-02-16T00:36:04.308Z,59.2
2019-02-16T00:36:54.110Z,59.2
2019-02-16T00:37:43.543Z,59.2
2019-02-16T00:38:33.620Z,59.2
2019-02-16T00:39:24.512Z,59.2
2019-02-16T00:40:14.272Z,59.1
2019-02-16T00:41:04.330Z,59.1
2019-02-16T00:41:54.109Z,59.1
2019-02-16T00:42:44.734Z,59.1
2019-02-16T00:43:34.269Z,59.1
2019-02-16T00:44:24.015Z,59.1
2019-02-16T00:45:14.640Z,59.1
2019-02-16T00:46:04.390Z,59.1
2019-02-16T00:46:54.187Z,59.1
2019-02-16T00:47:44.800Z,59.1
2019-02-16T00:48:34.853Z,59.1
2019-02-16T00:49:24.907Z,59.1
2019-02-16T00:50:15.003Z,59.1
2019-02-16T00:51:14.670Z,59.1
2019-02-16T00:51:54.786Z,59.1
2019-02-16T00:52:44.564Z,59
2019-02-16T00:53:34.619Z,59
2019-02-16T00:54:24.964Z,59
2019-02-16T00:55:15.296Z,59
2019-02-16T00:56:05.073Z,59
2019-02-16T00:56:55.506Z,59
2019-02-16T00:57:45.453Z,59
2019-02-16T00:58:35.261Z,59
2019-02-16T00:59:25.302Z,58.9
2019-02-16T01:00:15.941Z,58.9
2019-02-16T01:01:05.199Z,58.9
2019-02-16T01:01:55.761Z,58.9
2019-02-16T01:02:45.536Z,58.9
2019-02-16T01:03:35.314Z,58.9
2019-02-16T01:04:25.148Z,58.9
2019-02-16T01:05:15.711Z,58.9
2019-02-16T01:06:06.078Z,58.9
2019-02-16T01:06:56.096Z,58.9
2019-02-16T01:07:46.168Z,58.9
2019-02-16T01:08:35.933Z,58.9
2019-02-16T01:09:25.909Z,58.9
2019-02-16T01:10:16.596Z,58.9
2019-02-16T01:11:06.090Z,58.9
2019-02-16T01:11:55.943Z,58.9
2019-02-16T01:12:45.740Z,58.8
2019-02-16T01:13:36.349Z,58.8
2019-02-16T01:14:26.436Z,58.8
2019-02-16T01:15:15.985Z,58.8
2019-02-16T01:16:06.565Z,58.8
2019-02-16T01:16:56.595Z,58.8
2019-02-16T01:17:46.077Z,58.8
2019-02-16T01:18:36.972Z,58.8
2019-02-16T01:19:26.682Z,58.8
2019-02-16T01:20:17.000Z,58.8
2019-02-16T01:21:07.332Z,58.8
2019-02-16T01:21:56.847Z,58.8
2019-02-16T01:22:47.449Z,58.8
2019-02-16T01:23:37.571Z,58.8
2019-02-16T01:24:27.297Z,58.7
2019-02-16T01:25:17.617Z,58.7
2019-02-16T01:26:07.121Z,58.7
2019-02-16T01:26:57.737Z,58.7
2019-02-16T01:27:46.957Z,58.7
2019-02-16T01:28:37.308Z,58.7
2019-02-16T01:29:27.631Z,58.7
2019-02-16T01:30:17.703Z,58.7
2019-02-16T01:31:07.756Z,58.7
2019-02-16T01:31:57.886Z,58.6
2019-02-16T01:32:48.077Z,58.6
2019-02-16T01:33:38.194Z,58.6
2019-02-16T01:34:27.444Z,58.6
2019-02-16T01:35:17.744Z,58.6
2019-02-16T01:36:08.374Z,58.6
2019-02-16T01:36:58.409Z,58.6
2019-02-16T01:37:48.191Z,58.6
2019-02-16T01:43:38.621Z,58.5
2019-02-16T01:44:28.411Z,58.5
2019-02-16T01:45:18.179Z,58.5
2019-02-16T01:46:08.501Z,58.5
2019-02-16T01:46:58.839Z,58.5
2019-02-16T01:47:49.425Z,58.5
2019-02-16T01:48:38.124Z,58.5
2019-02-16T01:49:29.298Z,58.4
2019-02-16T01:50:19.052Z,58.5
2019-02-16T01:51:09.119Z,58.4
2019-02-16T01:51:59.435Z,58.4
2019-02-16T01:52:49.267Z,58.4
2019-02-16T01:53:39.285Z,58.4
2019-02-16T01:54:29.640Z,58.4
2019-02-16T01:55:19.442Z,58.4
2019-02-16T01:56:09.749Z,58.4
2019-02-16T01:56:59.782Z,58.4
2019-02-16T01:57:49.647Z,58.4
2019-02-16T01:58:39.371Z,58.4
2019-02-16T01:59:29.149Z,58.4
2019-02-16T02:00:20.024Z,58.4
2019-02-16T02:01:09.806Z,58.4
2019-02-16T02:01:59.590Z,58.4
2019-02-16T02:02:49.632Z,58.4
2019-02-16T02:03:39.981Z,58.3
2019-02-16T02:04:30.041Z,58.3
2019-02-16T02:05:19.826Z,58.3
2019-02-16T02:06:09.575Z,58.3
2019-02-16T02:07:00.475Z,58.3
2019-02-16T02:07:50.450Z,58.3
2019-02-16T02:08:40.376Z,58.3
2019-02-16T02:09:30.374Z,58.3
2019-02-16T02:10:20.441Z,58.3
2019-02-16T02:11:10.546Z,58.3
2019-02-16T02:12:00.539Z,58.3
2019-02-16T02:12:50.728Z,58.3
2019-02-16T02:13:40.451Z,58.2
2019-02-16T02:14:30.744Z,58.2
2019-02-16T02:15:20.219Z,58.3
2019-02-16T02:16:10.846Z,58.2
2019-02-16T02:17:00.388Z,58.2
2019-02-16T02:17:51.493Z,58.2
2019-02-16T02:18:41.286Z,58.2
2019-02-16T02:19:31.074Z,58.2
2019-02-16T02:20:21.431Z,58.2
2019-02-16T02:21:10.761Z,58.2
2019-02-16T02:22:00.706Z,58.2
2019-02-16T02:22:50.833Z,58.1
2019-02-16T02:23:41.624Z,58.1
2019-02-16T02:24:30.366Z,58.1
2019-02-16T02:25:20.994Z,58.1
2019-02-16T02:26:11.036Z,58.1
2019-02-16T02:27:00.845Z,58.1
2019-02-16T02:27:51.436Z,58.1
2019-02-16T02:28:40.653Z,58.1
2019-02-16T02:29:31.030Z,58.1
2019-02-16T02:30:22.236Z,58.1
2019-02-16T02:31:11.128Z,58.1
2019-02-16T02:32:01.765Z,58.1
2019-02-16T02:32:52.275Z,58.1
2019-02-16T02:33:42.367Z,58
2019-02-16T02:34:32.113Z,58
2019-02-16T02:35:22.175Z,58
2019-02-16T02:36:12.561Z,58
2019-02-16T02:37:02.016Z,58
2019-02-16T02:37:52.308Z,58
2019-02-16T02:38:42.691Z,58
2019-02-16T02:39:32.459Z,57.9
2019-02-16T02:40:22.484Z,57.9
2019-02-16T02:41:12.820Z,57.9
2019-02-16T02:42:02.906Z,57.9
2019-02-16T02:42:52.994Z,58
2019-02-16T02:43:42.744Z,58.1
2019-02-16T02:44:31.987Z,58.3
2019-02-16T02:45:22.867Z,58.4
2019-02-16T02:46:13.202Z,58.6
2019-02-16T02:47:02.996Z,58.9
2019-02-16T02:47:52.787Z,59.1
2019-02-16T02:48:42.587Z,59.4
2019-02-16T02:49:32.882Z,59.6
2019-02-16T02:50:23.579Z,59.8
2019-02-16T02:51:12.974Z,60.1
2019-02-16T02:52:03.005Z,60.3
2019-02-16T02:52:53.656Z,60.5
2019-02-16T02:53:43.453Z,60.6
2019-02-16T02:54:33.480Z,60.8
2019-02-16T02:55:23.527Z,61
2019-02-16T02:56:13.881Z,61.2
2019-02-16T02:57:03.391Z,61.3
2019-02-16T02:57:53.692Z,61.4
2019-02-16T02:58:44.052Z,61.6
2019-02-16T02:59:34.134Z,61.8
2019-02-16T03:00:23.886Z,61.8
2019-02-16T03:01:13.722Z,61.9
2019-02-16T03:02:03.774Z,62.1
2019-02-16T03:02:54.075Z,62.3
2019-02-16T03:03:43.828Z,62.4
2019-02-16T03:04:33.901Z,62.4
2019-02-16T03:08:07.060Z,62.8
2019-02-16T03:08:56.568Z,63.1
2019-02-16T03:09:47.437Z,63.3
2019-02-16T03:10:37.519Z,63.3
2019-02-16T03:11:26.720Z,63.3
2019-02-16T03:12:17.043Z,63.6
2019-02-16T03:13:07.403Z,63.6
2019-02-16T03:13:57.175Z,63.7
2019-02-16T03:14:48.236Z,63.7
2019-02-16T03:15:37.845Z,63.9
2019-02-16T03:16:29.508Z,64
2019-02-16T03:17:17.701Z,64.1
2019-02-16T03:18:07.521Z,64.1
2019-02-16T03:18:57.814Z,64.2
2019-02-16T03:19:48.123Z,64.4
2019-02-16T03:20:37.629Z,64.4
2019-02-16T03:21:27.417Z,64.4
2019-02-16T03:22:18.017Z,64.4
2019-02-16T03:23:07.584Z,64.7
2019-02-16T03:23:58.227Z,64.7
2019-02-16T03:24:48.790Z,64.7
2019-02-16T03:25:38.252Z,64.8
2019-02-16T03:26:27.548Z,64.9
2019-02-16T03:27:18.358Z,65
2019-02-16T03:28:08.154Z,65
2019-02-16T03:28:58.599Z,65.1
2019-02-16T03:29:48.794Z,65.1
2019-02-16T03:30:38.691Z,65.3
2019-02-16T03:31:28.591Z,65.3
2019-02-16T03:32:18.850Z,65.4
2019-02-16T03:33:08.685Z,65.4
2019-02-16T03:33:58.907Z,65.4
2019-02-16T03:34:49.025Z,65.6
2019-02-16T03:35:40.604Z,65.6
2019-02-16T03:36:28.999Z,65.6
2019-02-16T03:37:18.507Z,65.6
2019-02-16T03:38:08.920Z,65.8
2019-02-16T03:38:58.681Z,65.9
2019-02-16T03:39:49.291Z,65.9
2019-02-16T03:40:39.283Z,65.9
2019-02-16T03:41:28.636Z,65.9
2019-02-16T03:42:19.390Z,66
2019-02-16T03:43:09.180Z,66
2019-02-16T03:43:59.786Z,66.1
2019-02-16T03:44:49.797Z,66.1
2019-02-16T03:45:39.667Z,66.1
2019-02-16T03:46:29.192Z,66.1
2019-02-16T03:47:19.722Z,66.1
2019-02-16T03:48:09.275Z,66.1
2019-02-16T03:48:59.345Z,66.1
2019-02-16T03:49:49.608Z,66.1
2019-02-16T03:50:39.524Z,66.1
2019-02-16T03:51:28.953Z,66.1
2019-02-16T03:52:19.628Z,66.1
2019-02-16T03:53:09.090Z,66.1
2019-02-16T03:53:59.962Z,66.1
2019-02-16T03:54:50.021Z,66.1
2019-02-16T03:55:40.136Z,66.1
2019-02-16T03:56:29.870Z,66.1
2019-02-16T03:57:19.885Z,66.1
2019-02-16T03:58:10.282Z,66
2019-02-16T03:58:59.787Z,66
2019-02-16T03:59:50.680Z,66
2019-02-16T04:00:40.402Z,66
2019-02-16T04:01:30.768Z,66
2019-02-16T04:02:20.188Z,66
2019-02-16T04:03:10.582Z,65.9
2019-02-16T04:04:00.895Z,66
2019-02-16T04:04:50.731Z,65.9
2019-02-16T04:05:40.980Z,65.9
2019-02-16T04:06:30.539Z,65.9
2019-02-16T04:07:20.601Z,65.9
2019-02-16T04:08:10.454Z,65.9
2019-02-16T04:09:00.521Z,65.9
2019-02-16T04:09:50.374Z,65.9
2019-02-16T04:10:40.625Z,65.9
2019-02-16T04:11:30.114Z,65.9
2019-02-16T04:12:20.949Z,65.9
2019-02-16T04:13:11.531Z,65.8
2019-02-16T04:14:01.071Z,65.8
2019-02-16T04:14:50.919Z,65.8
2019-02-16T04:15:41.691Z,65.8
2019-02-16T04:16:31.513Z,65.8
2019-02-16T04:17:21.023Z,65.8
2019-02-16T04:18:10.586Z,65.8
2019-02-16T04:19:00.396Z,65.8
2019-02-16T04:19:51.223Z,65.8
2019-02-16T04:20:41.478Z,65.8
2019-02-16T04:21:32.319Z,65.8
2019-02-16T04:22:28.060Z,65.7
2019-02-16T04:23:12.472Z,65.7
2019-02-16T04:24:01.534Z,65.7
2019-02-16T04:24:52.014Z,65.7
2019-02-16T04:25:42.536Z,65.7
2019-02-16T04:26:32.119Z,65.7
2019-02-16T04:27:22.493Z,65.7
2019-02-16T04:28:12.047Z,65.6
2019-02-16T04:29:02.621Z,65.6
2019-02-16T04:29:52.353Z,65.6
2019-02-16T04:30:43.063Z,65.6
2019-02-16T04:31:32.808Z,65.6
2019-02-16T04:32:22.073Z,65.6
2019-02-16T04:33:12.869Z,65.6
2019-02-16T04:34:02.943Z,65.6
2019-02-16T04:34:53.031Z,65.6
2019-02-16T04:35:43.401Z,65.6
2019-02-16T04:36:32.809Z,65.6
2019-02-16T04:37:23.386Z,65.6
2019-02-16T04:38:12.674Z,65.6
2019-02-16T04:39:03.545Z,65.5
2019-02-16T04:39:53.063Z,65.5
2019-02-16T04:40:43.113Z,65.5
2019-02-16T04:41:33.482Z,65.5
2019-02-16T04:42:23.444Z,65.5
2019-02-16T04:43:13.234Z,65.5
2019-02-16T04:44:03.602Z,65.4
2019-02-16T04:44:53.677Z,65.4
2019-02-16T04:45:43.720Z,65.4
2019-02-16T04:46:33.774Z,65.4
2019-02-16T04:47:23.545Z,65.4
2019-02-16T04:48:13.885Z,65.4
2019-02-16T04:49:03.375Z,65.4
2019-02-16T04:49:53.706Z,65.4
2019-02-16T04:50:44.324Z,65.4
2019-02-16T04:51:34.122Z,65.4
2019-02-16T04:52:33.961Z,65.4
2019-02-16T04:53:14.498Z,65.4
2019-02-16T04:54:04.276Z,65.4
2019-02-16T04:54:54.046Z,65.3
2019-02-16T04:55:44.121Z,65.3
2019-02-16T04:56:34.434Z,65.3
2019-02-16T04:57:24.231Z,65.3
2019-02-16T04:58:14.568Z,65.3
2019-02-16T04:59:04.747Z,65.3
2019-02-16T04:59:54.454Z,65.3
2019-02-16T05:00:44.813Z,65.3
2019-02-16T05:01:34.810Z,65.3
2019-02-16T05:02:24.849Z,65.3
2019-02-16T05:03:15.172Z,65.3
2019-02-16T05:04:04.956Z,65.3
2019-02-16T05:04:54.736Z,65.3
2019-02-16T05:05:44.813Z,65.3
2019-02-16T05:06:35.402Z,65.3
2019-02-16T05:07:24.976Z,65.3
2019-02-16T05:08:14.968Z,65.2
2019-02-16T05:09:05.053Z,65.2
2019-02-16T05:09:55.761Z,65.2
2019-02-16T05:10:45.476Z,65.2
2019-02-16T05:11:35.756Z,65.2
2019-02-16T05:12:25.513Z,65.2
2019-02-16T05:13:15.890Z,65.1
2019-02-16T05:14:05.638Z,65.1
2019-02-16T05:14:55.437Z,65.1
2019-02-16T05:15:45.533Z,65.1
2019-02-16T05:16:35.580Z,65.1
2019-02-16T05:17:25.903Z,65.1
2019-02-16T05:18:15.958Z,65.1
2019-02-16T05:19:06.245Z,65.1
2019-02-16T05:19:55.487Z,65.1
2019-02-16T05:20:46.094Z,65.1
2019-02-16T05:21:36.205Z,65.1
2019-02-16T05:22:26.220Z,65.1
2019-02-16T05:23:16.535Z,65.1
2019-02-16T05:24:06.608Z,65.1
2019-02-16T05:24:55.842Z,65.1
2019-02-16T05:25:46.177Z,65
2019-02-16T05:26:36.218Z,65
2019-02-16T05:27:26.345Z,65
2019-02-16T05:28:16.072Z,65
2019-02-16T05:29:05.878Z,65
2019-02-16T05:29:56.762Z,64.9
2019-02-16T05:30:46.769Z,65
2019-02-16T05:31:36.854Z,64.9
2019-02-16T05:32:26.891Z,64.9
2019-02-16T05:33:16.474Z,64.9
2019-02-16T05:34:05.999Z,64.9
2019-02-16T05:34:57.336Z,64.9
2019-02-16T05:35:46.626Z,64.9
2019-02-16T05:36:37.437Z,64.9
2019-02-16T05:37:26.952Z,64.9
2019-02-16T05:38:17.289Z,64.9
2019-02-16T05:39:07.356Z,64.9
2019-02-16T05:39:56.940Z,64.9
2019-02-16T05:40:47.222Z,64.9
2019-02-16T05:41:37.524Z,64.9
2019-02-16T05:42:27.571Z,64.8
2019-02-16T05:43:17.701Z,64.8
2019-02-16T05:44:07.662Z,64.8
2019-02-16T05:44:57.204Z,64.8
2019-02-16T05:45:47.536Z,64.8
2019-02-16T05:46:37.841Z,64.8
2019-02-16T05:47:28.184Z,64.8
2019-02-16T05:48:18.051Z,64.8
2019-02-16T05:49:08.286Z,64.8
2019-02-16T05:49:57.817Z,64.8
2019-02-16T05:50:48.696Z,64.8
2019-02-16T05:51:38.211Z,64.8
2019-02-16T05:52:28.245Z,64.8
2019-02-16T05:53:20.220Z,64.8
2019-02-16T05:54:08.084Z,64.7
2019-02-16T05:54:58.159Z,64.7
2019-02-16T05:55:47.790Z,64.7
2019-02-16T05:56:38.521Z,64.7
2019-02-16T05:57:28.344Z,64.7
2019-02-16T05:58:18.650Z,64.7
2019-02-16T05:59:10.653Z,64.7
2019-02-16T05:59:58.235Z,64.6
2019-02-16T06:00:48.788Z,64.6
2019-02-16T06:01:38.358Z,64.6
2019-02-16T06:02:28.652Z,64.6
2019-02-16T06:03:18.733Z,64.6
2019-02-16T06:04:09.298Z,64.6
2019-02-16T06:06:06.582Z,64.6
2019-02-16T06:06:56.404Z,64.6
2019-02-16T06:07:47.080Z,64.6
2019-02-16T06:08:36.595Z,64.6
2019-02-16T06:09:27.392Z,64.6
2019-02-16T06:10:17.224Z,64.6
2019-02-16T06:11:09.526Z,64.6
2019-02-16T06:11:56.837Z,64.5
2019-02-16T06:12:46.582Z,64.5
2019-02-16T06:13:37.186Z,64.5
2019-02-16T06:14:27.283Z,64.5
2019-02-16T06:15:17.248Z,64.5
2019-02-16T06:16:07.549Z,64.5
2019-02-16T06:16:56.585Z,64.5
2019-02-16T06:17:47.640Z,64.4
2019-02-16T06:18:37.263Z,64.5
2019-02-16T06:19:28.055Z,64.4
2019-02-16T06:20:17.285Z,64.4
2019-02-16T06:21:08.265Z,64.4
2019-02-16T06:21:57.390Z,64.4
2019-02-16T06:22:47.744Z,64.4
2019-02-16T06:23:37.819Z,64.4
2019-02-16T06:24:28.475Z,64.4
2019-02-16T06:25:18.584Z,64.4
2019-02-16T06:26:08.029Z,64.4
2019-02-16T06:26:57.732Z,64.4
2019-02-16T06:27:48.254Z,64.4
2019-02-16T06:28:39.304Z,64.4
2019-02-16T06:29:28.198Z,64.4
2019-02-16T06:30:18.272Z,64.3
2019-02-16T06:31:08.877Z,64.3
2019-02-16T06:31:58.894Z,64.3
2019-02-16T06:32:49.000Z,64.3
2019-02-16T06:33:38.872Z,64.3
2019-02-16T06:34:28.524Z,64.3
2019-02-16T06:35:18.889Z,64.3
2019-02-16T06:36:08.107Z,64.3
2019-02-16T06:36:59.284Z,64.3
2019-02-16T06:37:49.044Z,64.3
2019-02-16T06:38:39.110Z,64.2
2019-02-16T06:39:29.526Z,64.3
2019-02-16T06:40:19.247Z,64.3
2019-02-16T06:41:09.082Z,64.2
2019-02-16T06:41:59.349Z,64.2
2019-02-16T06:42:49.691Z,64.2
2019-02-16T06:43:39.497Z,64.2
2019-02-16T06:44:29.530Z,64.2
2019-02-16T06:45:19.286Z,64.2
2019-02-16T06:46:09.626Z,64.2
2019-02-16T06:46:59.688Z,64.1
2019-02-16T06:47:49.449Z,64.1
2019-02-16T06:48:40.051Z,64.1
2019-02-16T06:49:29.143Z,64.1
2019-02-16T06:50:19.628Z,64.1
2019-02-16T06:51:10.233Z,64.1
2019-02-16T06:52:00.061Z,64.1
2019-02-16T06:52:50.081Z,64.1
2019-02-16T06:53:40.138Z,64.1
2019-02-16T06:54:30.468Z,64.1
2019-02-16T06:55:20.573Z,64.1
2019-02-16T06:56:10.585Z,64.1
2019-02-16T06:57:00.640Z,64.1
2019-02-16T06:57:50.150Z,64
2019-02-16T06:58:40.796Z,64.1
2019-02-16T06:59:30.818Z,64
2019-02-16T07:00:20.727Z,64
2019-02-16T07:01:10.680Z,64
2019-02-16T07:02:00.976Z,63.9
2019-02-16T07:02:50.790Z,63.9
2019-02-16T07:03:40.836Z,63.9
2019-02-16T07:06:07.094Z,63.9
2019-02-16T07:06:56.060Z,63.9
2019-02-16T07:07:47.223Z,63.9
2019-02-16T07:08:36.452Z,63.9
2019-02-16T07:09:27.348Z,63.9
2019-02-16T07:10:16.566Z,63.9
2019-02-16T07:11:06.995Z,63.9
2019-02-16T07:11:56.957Z,63.9
2019-02-16T07:12:47.285Z,63.9
2019-02-16T07:13:36.510Z,63.8
2019-02-16T07:14:27.177Z,63.8
2019-02-16T07:15:17.212Z,63.8
2019-02-16T07:16:07.512Z,63.8
2019-02-16T07:16:57.562Z,63.8
2019-02-16T07:17:47.635Z,63.8
2019-02-16T07:18:37.135Z,63.8
2019-02-16T07:19:27.739Z,63.8
2019-02-16T07:20:17.251Z,63.8
2019-02-16T07:21:08.141Z,63.8
2019-02-16T07:21:57.356Z,63.8
2019-02-16T07:22:47.699Z,63.8
2019-02-16T07:23:38.340Z,63.8
2019-02-16T07:24:28.208Z,63.8
2019-02-16T07:25:17.607Z,63.8
2019-02-16T07:26:08.923Z,63.7
2019-02-16T07:26:58.625Z,63.7
2019-02-16T07:27:47.784Z,63.7
2019-02-16T07:28:38.104Z,63.7
2019-02-16T07:29:28.741Z,63.7
2019-02-16T07:30:18.228Z,63.7
2019-02-16T07:31:08.346Z,63.6
2019-02-16T07:31:58.926Z,63.6
2019-02-16T07:32:48.427Z,63.6
2019-02-16T07:33:39.029Z,63.6
2019-02-16T07:34:28.566Z,63.6
2019-02-16T07:35:18.596Z,63.6
2019-02-16T07:36:09.214Z,63.6
2019-02-16T07:36:58.851Z,63.6
2019-02-16T07:37:49.149Z,63.6
2019-02-16T07:38:39.390Z,63.6
2019-02-16T07:39:28.860Z,63.6
2019-02-16T07:40:18.640Z,63.6
2019-02-16T07:41:09.251Z,63.6
2019-02-16T07:42:00.496Z,63.5
2019-02-16T07:42:49.414Z,63.5
2019-02-16T07:43:39.137Z,63.5
2019-02-16T07:44:29.502Z,63.5
2019-02-16T07:45:19.598Z,63.5
2019-02-16T07:46:09.929Z,63.5
2019-02-16T07:46:59.653Z,63.4
2019-02-16T07:47:49.700Z,63.5
2019-02-16T07:48:40.036Z,63.4
2019-02-16T07:49:29.596Z,63.4
2019-02-16T07:50:19.608Z,63.4
2019-02-16T07:51:09.933Z,63.4
2019-02-16T07:51:59.983Z,63.4
2019-02-16T07:52:50.021Z,63.4
2019-02-16T07:53:40.063Z,63.4
2019-02-16T07:54:30.198Z,63.4
2019-02-16T07:55:22.622Z,63.4
2019-02-16T07:56:10.539Z,63.4
2019-02-16T07:57:00.030Z,63.4
2019-02-16T07:57:50.095Z,63.4
2019-02-16T07:58:40.123Z,63.3
2019-02-16T07:59:30.188Z,63.3
2019-02-16T08:00:19.970Z,63.3
2019-02-16T08:01:10.327Z,63.3
2019-02-16T08:02:00.118Z,63.3
2019-02-16T08:02:50.433Z,63.3
2019-02-16T08:03:41.048Z,63.3
2019-02-16T08:04:30.832Z,63.3
2019-02-16T08:05:20.893Z,63.3
2019-02-16T08:06:10.438Z,63.3
2019-02-16T08:07:01.034Z,63.3
2019-02-16T08:07:50.795Z,63.2
2019-02-16T08:08:40.561Z,63.3
2019-02-16T08:09:31.204Z,63.3
2019-02-16T08:10:20.945Z,63.2
2019-02-16T08:11:11.270Z,63.2
2019-02-16T08:12:01.327Z,63.2
2019-02-16T08:12:51.382Z,63.2
2019-02-16T08:13:41.435Z,63.2
2019-02-16T08:14:31.517Z,63.1
2019-02-16T08:15:21.544Z,63.1
2019-02-16T08:16:11.069Z,63.1
2019-02-16T08:17:01.727Z,63.1
2019-02-16T08:17:51.479Z,63.1
2019-02-16T08:18:42.074Z,63.1
2019-02-16T08:19:32.143Z,63.1
2019-02-16T08:20:21.982Z,63.1
2019-02-16T08:21:11.957Z,63.1
2019-02-16T08:22:01.742Z,63.1
2019-02-16T08:22:52.054Z,63.1
2019-02-16T08:23:43.879Z,63.1
2019-02-16T08:24:32.194Z,63.1
2019-02-16T08:25:22.027Z,63.1
2019-02-16T08:26:11.469Z,63.1
2019-02-16T08:27:02.082Z,63
2019-02-16T08:27:52.138Z,63
2019-02-16T08:28:42.479Z,63
2019-02-16T08:29:32.516Z,63
2019-02-16T08:30:22.109Z,63
2019-02-16T08:31:12.915Z,62.9
2019-02-16T08:32:02.158Z,63
2019-02-16T08:32:52.183Z,62.9
2019-02-16T08:33:42.305Z,62.9
2019-02-16T08:34:32.608Z,62.9
2019-02-16T08:35:22.933Z,62.9
2019-02-16T08:36:11.886Z,62.9
2019-02-16T08:37:03.046Z,62.9
2019-02-16T08:37:53.106Z,62.9
2019-02-16T08:38:43.428Z,62.9
2019-02-16T08:39:33.210Z,62.9
2019-02-16T08:40:23.320Z,62.9
2019-02-16T08:41:12.823Z,62.9
2019-02-16T08:42:03.643Z,62.9
2019-02-16T08:42:53.715Z,62.8
2019-02-16T08:43:43.265Z,62.8
2019-02-16T08:44:33.288Z,62.8
2019-02-16T08:45:23.896Z,62.8
2019-02-16T08:46:13.956Z,62.8
2019-02-16T08:47:03.205Z,62.8
2019-02-16T08:47:53.497Z,62.8
2019-02-16T08:48:43.585Z,62.8
2019-02-16T08:49:33.615Z,62.8
2019-02-16T08:50:24.240Z,62.8
2019-02-16T08:51:13.257Z,62.8
2019-02-16T08:52:03.868Z,62.8
2019-02-16T08:52:53.847Z,62.8
2019-02-16T08:53:53.642Z,62.8
2019-02-16T08:54:33.988Z,62.8
2019-02-16T08:55:24.583Z,62.7
2019-02-16T08:56:14.414Z,62.7
2019-02-16T08:57:04.472Z,62.7
2019-02-16T08:57:54.752Z,62.7
2019-02-16T08:58:44.518Z,62.7
2019-02-16T08:59:34.585Z,62.6
2019-02-16T09:00:24.365Z,62.6
2019-02-16T09:01:14.224Z,62.6
2019-02-16T09:02:04.294Z,62.6
2019-02-16T09:02:54.541Z,62.6
2019-02-16T09:03:44.886Z,62.6
2019-02-16T09:04:34.951Z,62.6
2019-02-16T09:05:24.444Z,62.6
2019-02-16T09:06:15.329Z,62.6
2019-02-16T09:07:03.889Z,62.6
2019-02-16T09:07:55.456Z,62.6
2019-02-16T09:08:45.229Z,62.6
2019-02-16T09:09:35.283Z,62.6
2019-02-16T09:10:25.348Z,62.6
2019-02-16T09:11:15.394Z,62.6
2019-02-16T09:12:07.434Z,62.5
2019-02-16T09:12:55.508Z,62.5
2019-02-16T09:13:45.565Z,62.5
2019-02-16T09:14:35.423Z,62.5
2019-02-16T09:15:25.431Z,62.5
2019-02-16T09:16:15.738Z,62.5
2019-02-16T09:17:05.808Z,62.5
2019-02-16T09:17:55.846Z,62.4
2019-02-16T09:18:46.206Z,62.4
2019-02-16T09:19:35.393Z,62.4
2019-02-16T09:20:26.103Z,62.4
2019-02-16T09:21:18.678Z,62.4
2019-02-16T09:22:05.873Z,62.4
2019-02-16T09:22:55.994Z,62.4
2019-02-16T09:23:45.998Z,62.4
2019-02-16T09:24:36.582Z,62.4
2019-02-16T09:25:26.141Z,62.4
2019-02-16T09:26:16.217Z,62.4
2019-02-16T09:27:06.210Z,62.4
2019-02-16T09:27:56.834Z,62.4
2019-02-16T09:28:46.669Z,62.3
2019-02-16T09:29:36.142Z,62.3
2019-02-16T09:30:26.419Z,62.3
2019-02-16T09:31:17.105Z,62.3
2019-02-16T09:32:06.844Z,62.3
2019-02-16T09:32:56.903Z,62.3
2019-02-16T09:33:46.953Z,62.3
2019-02-16T09:34:37.259Z,62.3
2019-02-16T09:35:26.771Z,62.3
2019-02-16T09:36:16.854Z,62.3
2019-02-16T09:37:07.523Z,62.3
2019-02-16T09:37:57.509Z,62.3
2019-02-16T09:38:47.026Z,62.3
2019-02-16T09:39:37.637Z,62.3
2019-02-16T09:40:27.105Z,62.2
2019-02-16T09:41:17.462Z,62.2
2019-02-16T09:42:07.241Z,62.2
2019-02-16T09:42:57.004Z,62.2
2019-02-16T09:43:47.929Z,62.2
2019-02-16T09:44:37.682Z,62.2
2019-02-16T09:45:27.234Z,62.1
2019-02-16T09:46:18.061Z,62.1
2019-02-16T09:47:08.128Z,62.1
2019-02-16T09:47:57.351Z,62.1
2019-02-16T09:48:47.961Z,62.1
2019-02-16T09:49:38.021Z,62.1
2019-02-16T09:50:30.574Z,62.1
2019-02-16T09:51:17.876Z,62.1
2019-02-16T09:52:08.221Z,62.1
2019-02-16T09:52:58.254Z,62.1
2019-02-16T09:53:48.313Z,62.1
2019-02-16T09:54:38.383Z,62.1
2019-02-16T09:55:27.370Z,62
2019-02-16T09:56:18.463Z,62
2019-02-16T09:57:08.272Z,62
2019-02-16T09:57:58.325Z,62
2019-02-16T09:58:48.093Z,62
2019-02-16T09:59:38.697Z,62
2019-02-16T10:00:28.837Z,61.9
2019-02-16T10:01:18.544Z,61.9
2019-02-16T10:02:08.880Z,61.9
2019-02-16T10:02:58.110Z,61.9
2019-02-16T10:03:48.433Z,61.9
2019-02-16T10:04:39.070Z,61.9
2019-02-16T10:07:06.737Z,62
2019-02-16T10:07:56.709Z,62.1
2019-02-16T10:08:46.838Z,62.1
2019-02-16T10:09:36.559Z,62.2
2019-02-16T10:10:26.941Z,62.2
2019-02-16T10:11:16.972Z,62.3
2019-02-16T10:12:07.029Z,62.3
2019-02-16T10:12:56.860Z,62.3
2019-02-16T10:13:47.182Z,62.4
2019-02-16T10:14:37.175Z,62.4
2019-02-16T10:15:27.554Z,62.4
2019-02-16T10:16:17.627Z,62.4
2019-02-16T10:17:07.517Z,62.5
2019-02-16T10:17:57.135Z,62.5
2019-02-16T10:18:47.747Z,62.6
2019-02-16T10:19:36.957Z,62.6
2019-02-16T10:20:27.849Z,62.6
2019-02-16T10:21:17.942Z,62.7
2019-02-16T10:22:07.464Z,62.7
2019-02-16T10:22:57.794Z,62.7
2019-02-16T10:23:47.536Z,62.8
2019-02-16T10:24:37.589Z,62.8
2019-02-16T10:25:27.654Z,62.8
2019-02-16T10:26:17.147Z,62.9
2019-02-16T10:27:08.034Z,62.9
2019-02-16T10:27:58.397Z,62.9
2019-02-16T10:28:48.426Z,63
2019-02-16T10:29:37.646Z,63
2019-02-16T10:30:27.773Z,63.1
2019-02-16T10:31:18.324Z,63.1
2019-02-16T10:32:08.681Z,63.1
2019-02-16T10:32:58.499Z,63.2
2019-02-16T10:33:48.241Z,63.3
2019-02-16T10:34:38.570Z,63.3
2019-02-16T10:35:28.345Z,63.3
2019-02-16T10:36:18.420Z,63.3
2019-02-16T10:37:08.438Z,63.4
2019-02-16T10:37:59.068Z,63.4
2019-02-16T10:38:49.112Z,63.4
2019-02-16T10:39:38.888Z,63.4
2019-02-16T10:40:28.413Z,63.5
2019-02-16T10:41:18.457Z,63.6
2019-02-16T10:42:09.086Z,63.6
2019-02-16T10:42:59.150Z,63.6
2019-02-16T10:43:48.925Z,63.7
2019-02-16T10:44:39.250Z,63.7
2019-02-16T10:45:28.756Z,63.8
2019-02-16T10:46:19.085Z,63.8
2019-02-16T10:47:09.172Z,63.8
2019-02-16T10:47:59.750Z,63.9
2019-02-16T10:48:49.572Z,63.9
2019-02-16T10:49:39.625Z,63.9
2019-02-16T10:50:29.652Z,64
2019-02-16T10:51:19.695Z,64
2019-02-16T10:52:09.755Z,64.1
2019-02-16T10:52:59.390Z,64.1
2019-02-16T10:53:49.597Z,64.2
2019-02-16T10:54:40.224Z,64.2
2019-02-16T10:55:29.725Z,64.3
2019-02-16T10:56:19.780Z,64.3
2019-02-16T10:57:10.410Z,64.4
2019-02-16T10:58:00.444Z,64.4
2019-02-16T10:58:49.967Z,64.4
2019-02-16T10:59:40.545Z,64.5
2019-02-16T11:00:29.770Z,64.6
2019-02-16T11:01:19.839Z,64.6
2019-02-16T11:02:10.727Z,64.6
2019-02-16T11:03:00.802Z,64.7
2019-02-16T11:03:50.345Z,64.7
2019-02-16T11:04:41.874Z,64.8
2019-02-16T11:05:30.402Z,64.8
2019-02-16T11:06:20.459Z,64.9
2019-02-16T11:07:10.515Z,64.9
2019-02-16T11:08:01.132Z,64.9
2019-02-16T11:08:50.374Z,65
2019-02-16T11:09:41.022Z,65.1
2019-02-16T11:10:30.741Z,65.1
2019-02-16T11:11:21.406Z,65.1
2019-02-16T11:12:11.416Z,65.2
2019-02-16T11:13:01.193Z,65.2
2019-02-16T11:13:50.686Z,65.3
2019-02-16T11:14:41.313Z,65.3
2019-02-16T11:15:33.029Z,65.3
2019-02-16T11:16:21.701Z,65.4
2019-02-16T11:17:11.759Z,65.4
2019-02-16T11:18:01.269Z,65.5
2019-02-16T11:18:51.881Z,65.5
2019-02-16T11:19:41.655Z,65.6
2019-02-16T11:20:31.309Z,65.6
2019-02-16T11:21:21.212Z,65.6